Cape Race, Canada
Current Conditions -  °F | °C
As of 2:00 AM on Tuesday 23 Dec 2014 (Local Time) from CYYT Reporting Station
Overcast Overcast  
Wind Chill: 20°   Ceiling: 1100
Heat Index: 27°   Visibility: 15mi
Dew Point: 23°   Wind: 6mph
Humidity: 86%   Direction: 10°N
Pressure: 30.44"   Gusts: NA
Location:  46.66°N, 53.09°W
Report Text: CYYT 230500Z 01005KT 15SM OVC011 M03/M05 A3044 RMK SC8 SLP315
Loading
Personal Weather Stations






























Interactive Weather Map New forecast layout! Learn more

10-Day Weather Forecast

Advertisements
Track Severe Weather on mobile